sensor_id;sensor_type;location;lat;lon;timestamp;temperature;humidity
5940;DHT22;2995;-31.998;115.906;2022-09-03T00:02:18;12.70;99.90
5940;DHT22;2995;-31.998;115.906;2022-09-03T00:04:57;12.70;99.90
5940;DHT22;2995;-31.998;115.906;2022-09-03T00:07:39;12.70;99.90
5940;DHT22;2995;-31.998;115.906;2022-09-03T00:10:17;12.70;99.90
5940;DHT22;2995;-31.998;115.906;2022-09-03T00:12:51;12.70;99.90
5940;DHT22;2995;-31.998;115.906;2022-09-03T00:15:24;12.70;99.90
5940;DHT22;2995;-31.998;115.906;2022-09-03T00:17:57;12.70;99.90
5940;DHT22;2995;-31.998;115.906;2022-09-03T00:20:33;12.70;99.90
5940;DHT22;2995;-31.998;115.906;2022-09-03T00:23:08;12.70;99.90
5940;DHT22;2995;-31.998;115.906;2022-09-03T00:25:41;12.80;99.90
5940;DHT22;2995;-31.998;115.906;2022-09-03T00:28:16;12.80;99.90
5940;DHT22;2995;-31.998;115.906;2022-09-03T00:30:55;12.90;99.90
5940;DHT22;2995;-31.998;115.906;2022-09-03T00:33:30;13.00;99.90
5940;DHT22;2995;-31.998;115.906;2022-09-03T00:36:12;13.00;99.90
5940;DHT22;2995;-31.998;115.906;2022-09-03T00:38:45;13.00;99.90
5940;DHT22;2995;-31.998;115.906;2022-09-03T00:41:24;13.10;99.90
5940;DHT22;2995;-31.998;115.906;2022-09-03T00:44:09;13.20;99.90
5940;DHT22;2995;-31.998;115.906;2022-09-03T00:46:46;13.20;99.90
5940;DHT22;2995;-31.998;115.906;2022-09-03T00:49:29;13.20;99.90
5940;DHT22;2995;-31.998;115.906;2022-09-03T00:52:12;13.30;99.90
5940;DHT22;2995;-31.998;115.906;2022-09-03T00:54:51;13.30;99.90
5940;DHT22;2995;-31.998;115.906;2022-09-03T00:57:38;13.40;99.90
5940;DHT22;2995;-31.998;115.906;2022-09-03T01:00:15;13.50;99.90
5940;DHT22;2995;-31.998;115.906;2022-09-03T01:03:02;13.50;99.90
5940;DHT22;2995;-31.998;115.906;2022-09-03T01:05:45;13.60;99.90
5940;DHT22;2995;-31.998;115.906;2022-09-03T01:08:37;13.60;99.90
5940;DHT22;2995;-31.998;115.906;2022-09-03T01:11:18;13.70;99.90
5940;DHT22;2995;-31.998;115.906;2022-09-03T01:13:55;13.80;99.90
5940;DHT22;2995;-31.998;115.906;2022-09-03T01:16:34;13.70;99.90
5940;DHT22;2995;-31.998;115.906;2022-09-03T01:19:19;13.80;99.90
5940;DHT22;2995;-31.998;115.906;2022-09-03T01:22:09;13.80;99.90
5940;DHT22;2995;-31.998;115.906;2022-09-03T01:25:11;13.80;99.90
5940;DHT22;2995;-31.998;115.906;2022-09-03T01:28:03;13.80;99.90
5940;DHT22;2995;-31.998;115.906;2022-09-03T01:30:39;13.90;99.90
5940;DHT22;2995;-31.998;115.906;2022-09-03T01:33:18;13.90;99.90
5940;DHT22;2995;-31.998;115.906;2022-09-03T01:35:59;13.90;99.90
5940;DHT22;2995;-31.998;115.906;2022-09-03T01:38:36;14.00;99.90
5940;DHT22;2995;-31.998;115.906;2022-09-03T01:41:18;14.00;99.90
5940;DHT22;2995;-31.998;115.906;2022-09-03T01:44:16;14.00;99.90
5940;DHT22;2995;-31.998;115.906;2022-09-03T01:46:55;14.00;99.90
5940;DHT22;2995;-31.998;115.906;2022-09-03T01:49:33;14.00;99.90
5940;DHT22;2995;-31.998;115.906;2022-09-03T01:52:12;14.00;99.90
5940;DHT22;2995;-31.998;115.906;2022-09-03T01:55:04;14.10;99.90
5940;DHT22;2995;-31.998;115.906;2022-09-03T01:57:48;14.00;99.90
5940;DHT22;2995;-31.998;115.906;2022-09-03T02:00:21;14.10;99.90
5940;DHT22;2995;-31.998;115.906;2022-09-03T02:02:53;14.10;99.90
5940;DHT22;2995;-31.998;115.906;2022-09-03T02:05:26;14.10;99.90
5940;DHT22;2995;-31.998;115.906;2022-09-03T02:08:00;14.20;99.90
5940;DHT22;2995;-31.998;115.906;2022-09-03T02:10:34;14.20;99.90
5940;DHT22;2995;-31.998;115.906;2022-09-03T02:13:10;14.20;99.90
5940;DHT22;2995;-31.998;115.906;2022-09-03T02:15:44;14.20;99.90
5940;DHT22;2995;-31.998;115.906;2022-09-03T02:18:18;14.10;99.90
5940;DHT22;2995;-31.998;115.906;2022-09-03T02:20:51;14.10;99.90
5940;DHT22;2995;-31.998;115.906;2022-09-03T02:23:24;14.00;99.90
5940;DHT22;2995;-31.998;115.906;2022-09-03T02:25:57;14.10;99.90
5940;DHT22;2995;-31.998;115.906;2022-09-03T02:28:29;14.10;99.90
5940;DHT22;2995;-31.998;115.906;2022-09-03T02:31:04;14.10;99.90
5940;DHT22;2995;-31.998;115.906;2022-09-03T02:33:37;14.10;99.90
5940;DHT22;2995;-31.998;115.906;2022-09-03T02:36:10;14.10;99.90
5940;DHT22;2995;-31.998;115.906;2022-09-03T02:38:43;14.20;99.90
5940;DHT22;2995;-31.998;115.906;2022-09-03T02:41:14;14.30;99.90
5940;DHT22;2995;-31.998;115.906;2022-09-03T02:43:48;14.20;99.90
5940;DHT22;2995;-31.998;115.906;2022-09-03T02:46:25;14.30;99.90
5940;DHT22;2995;-31.998;115.906;2022-09-03T02:48:57;14.30;99.90
5940;DHT22;2995;-31.998;115.906;2022-09-03T02:51:32;14.30;99.90
5940;DHT22;2995;-31.998;115.906;2022-09-03T02:54:04;14.40;99.90
5940;DHT22;2995;-31.998;115.906;2022-09-03T02:56:36;14.40;99.90
5940;DHT22;2995;-31.998;115.906;2022-09-03T02:59:09;14.40;99.90
5940;DHT22;2995;-31.998;115.906;2022-09-03T03:01:42;14.40;99.90
5940;DHT22;2995;-31.998;115.906;2022-09-03T03:04:13;14.40;99.90
5940;DHT22;2995;-31.998;115.906;2022-09-03T03:06:44;14.40;99.90
5940;DHT22;2995;-31.998;115.906;2022-09-03T03:09:17;14.40;99.90
5940;DHT22;2995;-31.998;115.906;2022-09-03T03:11:48;14.40;99.90
5940;DHT22;2995;-31.998;115.906;2022-09-03T03:14:22;14.40;99.90
5940;DHT22;2995;-31.998;115.906;2022-09-03T03:16:55;14.40;99.90
5940;DHT22;2995;-31.998;115.906;2022-09-03T03:19:26;14.50;99.90
5940;DHT22;2995;-31.998;115.906;2022-09-03T03:21:57;14.50;99.90
5940;DHT22;2995;-31.998;115.906;2022-09-03T03:24:29;14.50;99.90
5940;DHT22;2995;-31.998;115.906;2022-09-03T03:27:00;14.50;99.90
5940;DHT22;2995;-31.998;115.906;2022-09-03T03:29:35;14.50;99.90
5940;DHT22;2995;-31.998;115.906;2022-09-03T03:32:08;14.50;99.90
5940;DHT22;2995;-31.998;115.906;2022-09-03T03:34:39;14.40;99.90
5940;DHT22;2995;-31.998;115.906;2022-09-03T03:37:11;14.60;99.90
5940;DHT22;2995;-31.998;115.906;2022-09-03T03:39:42;14.60;99.90
5940;DHT22;2995;-31.998;115.906;2022-09-03T03:42:13;14.60;99.90
5940;DHT22;2995;-31.998;115.906;2022-09-03T03:44:44;14.60;99.90
5940;DHT22;2995;-31.998;115.906;2022-09-03T03:47:17;14.60;99.90
5940;DHT22;2995;-31.998;115.906;2022-09-03T03:49:48;14.60;99.90
5940;DHT22;2995;-31.998;115.906;2022-09-03T03:52:20;14.50;99.90
5940;DHT22;2995;-31.998;115.906;2022-09-03T03:54:51;14.50;99.90
5940;DHT22;2995;-31.998;115.906;2022-09-03T03:57:23;14.60;99.90
5940;DHT22;2995;-31.998;115.906;2022-09-03T03:59:55;14.60;99.90
5940;DHT22;2995;-31.998;115.906;2022-09-03T04:02:28;14.60;99.90
5940;DHT22;2995;-31.998;115.906;2022-09-03T04:04:59;14.70;99.90
5940;DHT22;2995;-31.998;115.906;2022-09-03T04:07:30;14.70;99.90
5940;DHT22;2995;-31.998;115.906;2022-09-03T04:10:01;14.80;99.90
5940;DHT22;2995;-31.998;115.906;2022-09-03T04:12:33;14.90;99.90
5940;DHT22;2995;-31.998;115.906;2022-09-03T04:15:05;15.00;99.90
5940;DHT22;2995;-31.998;115.906;2022-09-03T04:17:38;15.10;99.90
5940;DHT22;2995;-31.998;115.906;2022-09-03T04:20:11;15.30;99.90
5940;DHT22;2995;-31.998;115.906;2022-09-03T04:22:42;15.30;99.90
5940;DHT22;2995;-31.998;115.906;2022-09-03T04:25:13;15.30;99.90
5940;DHT22;2995;-31.998;115.906;2022-09-03T04:27:44;15.30;99.90
5940;DHT22;2995;-31.998;115.906;2022-09-03T04:30:16;15.30;99.90
5940;DHT22;2995;-31.998;115.906;2022-09-03T04:32:49;15.40;99.90
5940;DHT22;2995;-31.998;115.906;2022-09-03T04:35:22;15.40;99.90
5940;DHT22;2995;-31.998;115.906;2022-09-03T04:37:56;15.50;99.90
5940;DHT22;2995;-31.998;115.906;2022-09-03T04:40:27;15.50;99.90
5940;DHT22;2995;-31.998;115.906;2022-09-03T04:42:59;15.40;99.90
5940;DHT22;2995;-31.998;115.906;2022-09-03T04:45:30;15.60;99.90
5940;DHT22;2995;-31.998;115.906;2022-09-03T04:48:04;15.60;99.90
5940;DHT22;2995;-31.998;115.906;2022-09-03T04:50:37;15.60;99.90
5940;DHT22;2995;-31.998;115.906;2022-09-03T04:53:08;15.80;99.90
5940;DHT22;2995;-31.998;115.906;2022-09-03T04:55:39;15.70;99.90
5940;DHT22;2995;-31.998;115.906;2022-09-03T04:58:11;15.70;99.90
5940;DHT22;2995;-31.998;115.906;2022-09-03T05:00:45;15.90;99.90
5940;DHT22;2995;-31.998;115.906;2022-09-03T05:03:18;15.90;99.90
5940;DHT22;2995;-31.998;115.906;2022-09-03T05:05:53;15.90;99.90
5940;DHT22;2995;-31.998;115.906;2022-09-03T05:08:25;15.90;99.90
5940;DHT22;2995;-31.998;115.906;2022-09-03T05:10:59;15.90;99.90
5940;DHT22;2995;-31.998;115.906;2022-09-03T05:13:31;16.00;99.90
5940;DHT22;2995;-31.998;115.906;2022-09-03T05:16:03;16.00;99.90
5940;DHT22;2995;-31.998;115.906;2022-09-03T05:18:37;16.10;99.90
5940;DHT22;2995;-31.998;115.906;2022-09-03T05:21:10;16.10;99.90
5940;DHT22;2995;-31.998;115.906;2022-09-03T05:23:42;16.00;99.90
5940;DHT22;2995;-31.998;115.906;2022-09-03T05:26:15;16.00;99.90
5940;DHT22;2995;-31.998;115.906;2022-09-03T05:28:47;16.00;99.90
5940;DHT22;2995;-31.998;115.906;2022-09-03T05:31:20;16.00;99.90
5940;DHT22;2995;-31.998;115.906;2022-09-03T05:33:55;16.00;99.90
5940;DHT22;2995;-31.998;115.906;2022-09-03T05:36:28;16.00;99.90
5940;DHT22;2995;-31.998;115.906;2022-09-03T05:39:00;16.10;99.90
5940;DHT22;2995;-31.998;115.906;2022-09-03T05:41:32;16.20;99.90
5940;DHT22;2995;-31.998;115.906;2022-09-03T05:44:04;16.20;99.90
5940;DHT22;2995;-31.998;115.906;2022-09-03T05:46:35;16.20;99.90
5940;DHT22;2995;-31.998;115.906;2022-09-03T05:49:09;16.10;99.90
5940;DHT22;2995;-31.998;115.906;2022-09-03T05:51:40;16.10;99.90
5940;DHT22;2995;-31.998;115.906;2022-09-03T05:54:11;16.10;99.90
5940;DHT22;2995;-31.998;115.906;2022-09-03T05:56:43;16.20;99.90
5940;DHT22;2995;-31.998;115.906;2022-09-03T05:59:14;16.20;99.90
5940;DHT22;2995;-31.998;115.906;2022-09-03T06:01:46;16.20;99.90
5940;DHT22;2995;-31.998;115.906;2022-09-03T06:04:20;16.30;99.90
5940;DHT22;2995;-31.998;115.906;2022-09-03T06:06:51;16.40;99.90
5940;DHT22;2995;-31.998;115.906;2022-09-03T06:09:23;16.40;99.90
5940;DHT22;2995;-31.998;115.906;2022-09-03T06:11:54;16.30;99.90
5940;DHT22;2995;-31.998;115.906;2022-09-03T06:14:25;16.20;99.90
5940;DHT22;2995;-31.998;115.906;2022-09-03T06:16:56;16.20;99.90
5940;DHT22;2995;-31.998;115.906;2022-09-03T06:19:29;16.10;99.90
5940;DHT22;2995;-31.998;115.906;2022-09-03T06:22:01;16.10;99.90
5940;DHT22;2995;-31.998;115.906;2022-09-03T06:24:32;16.00;99.90
5940;DHT22;2995;-31.998;115.906;2022-09-03T06:27:03;16.00;99.90
5940;DHT22;2995;-31.998;115.906;2022-09-03T06:29:35;16.00;99.90
5940;DHT22;2995;-31.998;115.906;2022-09-03T06:32:07;15.90;99.90
5940;DHT22;2995;-31.998;115.906;2022-09-03T06:34:40;15.90;99.90
5940;DHT22;2995;-31.998;115.906;2022-09-03T06:37:11;15.90;99.90
5940;DHT22;2995;-31.998;115.906;2022-09-03T06:39:42;16.00;99.90
5940;DHT22;2995;-31.998;115.906;2022-09-03T06:42:13;16.00;99.90
5940;DHT22;2995;-31.998;115.906;2022-09-03T06:44:45;16.10;99.90
5940;DHT22;2995;-31.998;115.906;2022-09-03T06:47:16;16.10;99.90
5940;DHT22;2995;-31.998;115.906;2022-09-03T06:49:49;16.10;99.90
5940;DHT22;2995;-31.998;115.906;2022-09-03T06:52:21;16.20;99.90
5940;DHT22;2995;-31.998;115.906;2022-09-03T06:54:52;16.20;99.90
5940;DHT22;2995;-31.998;115.906;2022-09-03T06:57:24;16.20;99.90
5940;DHT22;2995;-31.998;115.906;2022-09-03T06:59:55;16.30;99.90
5940;DHT22;2995;-31.998;115.906;2022-09-03T07:02:26;16.20;99.90
5940;DHT22;2995;-31.998;115.906;2022-09-03T07:04:59;16.20;99.90
5940;DHT22;2995;-31.998;115.906;2022-09-03T07:07:30;16.30;99.90
5940;DHT22;2995;-31.998;115.906;2022-09-03T07:10:02;16.30;99.90
5940;DHT22;2995;-31.998;115.906;2022-09-03T07:12:33;16.30;99.90
5940;DHT22;2995;-31.998;115.906;2022-09-03T07:15:05;16.50;99.90
5940;DHT22;2995;-31.998;115.906;2022-09-03T07:17:36;16.50;99.90
5940;DHT22;2995;-31.998;115.906;2022-09-03T07:20:10;16.50;99.90
5940;DHT22;2995;-31.998;115.906;2022-09-03T07:22:41;16.50;99.90
5940;DHT22;2995;-31.998;115.906;2022-09-03T07:25:12;16.50;99.90
5940;DHT22;2995;-31.998;115.906;2022-09-03T07:27:44;16.50;99.90
5940;DHT22;2995;-31.998;115.906;2022-09-03T07:30:16;16.40;99.90
5940;DHT22;2995;-31.998;115.906;2022-09-03T07:32:48;16.40;99.90
5940;DHT22;2995;-31.998;115.906;2022-09-03T07:35:23;16.40;99.90
5940;DHT22;2995;-31.998;115.906;2022-09-03T07:37:54;16.30;99.90
5940;DHT22;2995;-31.998;115.906;2022-09-03T07:40:25;16.30;99.90
5940;DHT22;2995;-31.998;115.906;2022-09-03T07:42:57;16.20;99.90
5940;DHT22;2995;-31.998;115.906;2022-09-03T07:45:31;16.30;99.90
5940;DHT22;2995;-31.998;115.906;2022-09-03T07:48:02;16.30;99.90
5940;DHT22;2995;-31.998;115.906;2022-09-03T07:50:36;16.20;99.90
5940;DHT22;2995;-31.998;115.906;2022-09-03T07:53:07;16.30;99.90
5940;DHT22;2995;-31.998;115.906;2022-09-03T07:55:38;16.30;99.90
5940;DHT22;2995;-31.998;115.906;2022-09-03T07:58:09;16.20;99.90
5940;DHT22;2995;-31.998;115.906;2022-09-03T08:00:41;16.20;99.90
5940;DHT22;2995;-31.998;115.906;2022-09-03T08:03:12;16.20;99.90
5940;DHT22;2995;-31.998;115.906;2022-09-03T08:05:45;16.20;99.90
5940;DHT22;2995;-31.998;115.906;2022-09-03T08:08:17;16.10;99.90
5940;DHT22;2995;-31.998;115.906;2022-09-03T08:10:48;16.00;99.90
5940;DHT22;2995;-31.998;115.906;2022-09-03T08:13:19;16.00;99.90
5940;DHT22;2995;-31.998;115.906;2022-09-03T08:15:54;15.90;99.90
5940;DHT22;2995;-31.998;115.906;2022-09-03T08:18:27;16.00;99.90
5940;DHT22;2995;-31.998;115.906;2022-09-03T08:21:05;15.90;99.90
5940;DHT22;2995;-31.998;115.906;2022-09-03T08:23:38;15.90;99.90
5940;DHT22;2995;-31.998;115.906;2022-09-03T08:26:10;15.80;99.90
5940;DHT22;2995;-31.998;115.906;2022-09-03T08:28:41;15.70;99.90
5940;DHT22;2995;-31.998;115.906;2022-09-03T08:31:15;15.70;99.90
5940;DHT22;2995;-31.998;115.906;2022-09-03T08:33:47;15.60;99.90
5940;DHT22;2995;-31.998;115.906;2022-09-03T08:36:22;15.60;99.90
5940;DHT22;2995;-31.998;115.906;2022-09-03T08:38:54;15.60;99.90
5940;DHT22;2995;-31.998;115.906;2022-09-03T08:41:37;15.50;99.90
5940;DHT22;2995;-31.998;115.906;2022-09-03T08:44:24;15.50;99.90
5940;DHT22;2995;-31.998;115.906;2022-09-03T08:46:58;15.50;99.90
5940;DHT22;2995;-31.998;115.906;2022-09-03T08:49:36;15.50;99.90
5940;DHT22;2995;-31.998;115.906;2022-09-03T08:52:20;15.40;99.90
5940;DHT22;2995;-31.998;115.906;2022-09-03T08:54:58;15.40;99.90
5940;DHT22;2995;-31.998;115.906;2022-09-03T08:57:35;15.30;99.90
5940;DHT22;2995;-31.998;115.906;2022-09-03T09:00:11;15.30;99.90
5940;DHT22;2995;-31.998;115.906;2022-09-03T09:02:52;15.30;99.90
5940;DHT22;2995;-31.998;115.906;2022-09-03T09:05:36;15.30;99.90
5940;DHT22;2995;-31.998;115.906;2022-09-03T09:08:16;15.20;99.90
5940;DHT22;2995;-31.998;115.906;2022-09-03T09:10:56;15.20;99.90
5940;DHT22;2995;-31.998;115.906;2022-09-03T09:13:43;15.20;99.90
5940;DHT22;2995;-31.998;115.906;2022-09-03T09:16:21;15.20;99.90
5940;DHT22;2995;-31.998;115.906;2022-09-03T09:19:03;15.10;99.90
5940;DHT22;2995;-31.998;115.906;2022-09-03T09:21:41;15.00;99.90
5940;DHT22;2995;-31.998;115.906;2022-09-03T09:24:22;15.00;99.90
5940;DHT22;2995;-31.998;115.906;2022-09-03T09:26:57;14.90;99.90
5940;DHT22;2995;-31.998;115.906;2022-09-03T09:29:30;14.90;99.90
5940;DHT22;2995;-31.998;115.906;2022-09-03T09:32:02;14.90;99.90
5940;DHT22;2995;-31.998;115.906;2022-09-03T09:34:35;14.80;99.90
5940;DHT22;2995;-31.998;115.906;2022-09-03T09:37:10;14.80;99.90
5940;DHT22;2995;-31.998;115.906;2022-09-03T09:39:55;14.80;99.90
5940;DHT22;2995;-31.998;115.906;2022-09-03T09:42:27;14.80;99.90
5940;DHT22;2995;-31.998;115.906;2022-09-03T09:45:09;14.70;99.90
5940;DHT22;2995;-31.998;115.906;2022-09-03T09:47:40;14.70;99.90
5940;DHT22;2995;-31.998;115.906;2022-09-03T09:50:18;14.70;99.90
5940;DHT22;2995;-31.998;115.906;2022-09-03T09:53:00;14.70;99.90
5940;DHT22;2995;-31.998;115.906;2022-09-03T09:55:49;14.50;99.90
5940;DHT22;2995;-31.998;115.906;2022-09-03T09:58:21;14.60;99.90
5940;DHT22;2995;-31.998;115.906;2022-09-03T10:00:57;14.50;99.90
5940;DHT22;2995;-31.998;115.906;2022-09-03T10:03:31;14.50;99.90
5940;DHT22;2995;-31.998;115.906;2022-09-03T10:06:05;14.50;99.90
5940;DHT22;2995;-31.998;115.906;2022-09-03T10:09:03;14.40;99.90
5940;DHT22;2995;-31.998;115.906;2022-09-03T10:11:39;14.40;99.90
5940;DHT22;2995;-31.998;115.906;2022-09-03T10:14:16;14.40;99.90
5940;DHT22;2995;-31.998;115.906;2022-09-03T10:16:53;14.40;99.90
5940;DHT22;2995;-31.998;115.906;2022-09-03T10:19:33;14.30;99.90
5940;DHT22;2995;-31.998;115.906;2022-09-03T10:22:11;14.30;99.90
5940;DHT22;2995;-31.998;115.906;2022-09-03T10:24:55;14.30;99.90
5940;DHT22;2995;-31.998;115.906;2022-09-03T10:27:29;14.30;99.90
5940;DHT22;2995;-31.998;115.906;2022-09-03T10:30:01;14.30;99.90
5940;DHT22;2995;-31.998;115.906;2022-09-03T10:32:38;14.30;99.90
5940;DHT22;2995;-31.998;115.906;2022-09-03T10:35:19;14.20;99.90
5940;DHT22;2995;-31.998;115.906;2022-09-03T10:37:58;14.30;99.90
5940;DHT22;2995;-31.998;115.906;2022-09-03T10:40:37;14.30;99.90
5940;DHT22;2995;-31.998;115.906;2022-09-03T10:43:30;14.20;99.90
5940;DHT22;2995;-31.998;115.906;2022-09-03T10:46:13;14.20;99.90
5940;DHT22;2995;-31.998;115.906;2022-09-03T10:49:12;14.10;99.90
5940;DHT22;2995;-31.998;115.906;2022-09-03T10:51:53;14.10;99.90
5940;DHT22;2995;-31.998;115.906;2022-09-03T10:54:50;14.20;99.90
5940;DHT22;2995;-31.998;115.906;2022-09-03T10:57:35;14.10;99.90
5940;DHT22;2995;-31.998;115.906;2022-09-03T11:00:11;14.10;99.90
5940;DHT22;2995;-31.998;115.906;2022-09-03T11:03:05;14.10;99.90
5940;DHT22;2995;-31.998;115.906;2022-09-03T11:05:41;14.10;99.90
5940;DHT22;2995;-31.998;115.906;2022-09-03T11:08:22;14.10;99.90
5940;DHT22;2995;-31.998;115.906;2022-09-03T11:10:56;14.10;99.90
5940;DHT22;2995;-31.998;115.906;2022-09-03T11:13:31;14.10;99.90
5940;DHT22;2995;-31.998;115.906;2022-09-03T11:16:10;14.10;99.90
5940;DHT22;2995;-31.998;115.906;2022-09-03T11:18:47;14.10;99.90
5940;DHT22;2995;-31.998;115.906;2022-09-03T11:21:22;14.00;99.90
5940;DHT22;2995;-31.998;115.906;2022-09-03T11:24:03;14.10;99.90
5940;DHT22;2995;-31.998;115.906;2022-09-03T11:26:36;14.10;99.90
5940;DHT22;2995;-31.998;115.906;2022-09-03T11:29:13;14.10;99.90
5940;DHT22;2995;-31.998;115.906;2022-09-03T11:31:54;14.00;99.90
5940;DHT22;2995;-31.998;115.906;2022-09-03T11:34:29;14.00;99.90
5940;DHT22;2995;-31.998;115.906;2022-09-03T11:37:21;14.00;99.90
5940;DHT22;2995;-31.998;115.906;2022-09-03T11:39:58;14.10;99.90
5940;DHT22;2995;-31.998;115.906;2022-09-03T11:42:37;14.00;99.90
5940;DHT22;2995;-31.998;115.906;2022-09-03T11:45:33;14.00;99.90
5940;DHT22;2995;-31.998;115.906;2022-09-03T11:48:30;14.00;99.90
5940;DHT22;2995;-31.998;115.906;2022-09-03T11:51:14;14.10;99.90
5940;DHT22;2995;-31.998;115.906;2022-09-03T11:53:55;14.10;99.90
5940;DHT22;2995;-31.998;115.906;2022-09-03T11:56:27;14.20;99.90
5940;DHT22;2995;-31.998;115.906;2022-09-03T12:01:51;14.20;99.90
5940;DHT22;2995;-31.998;115.906;2022-09-03T12:04:31;14.20;99.90
5940;DHT22;2995;-31.998;115.906;2022-09-03T12:07:25;14.20;99.90
5940;DHT22;2995;-31.998;115.906;2022-09-03T12:10:20;14.20;99.90
5940;DHT22;2995;-31.998;115.906;2022-09-03T12:13:13;14.30;99.90
5940;DHT22;2995;-31.998;115.906;2022-09-03T12:18:45;14.30;99.90
5940;DHT22;2995;-31.998;115.906;2022-09-03T12:21:21;14.20;99.90
5940;DHT22;2995;-31.998;115.906;2022-09-03T12:23:53;14.20;99.90
5940;DHT22;2995;-31.998;115.906;2022-09-03T12:26:25;14.30;99.90
5940;DHT22;2995;-31.998;115.906;2022-09-03T12:28:58;14.30;99.90
5940;DHT22;2995;-31.998;115.906;2022-09-03T12:31:30;14.30;99.90
5940;DHT22;2995;-31.998;115.906;2022-09-03T12:34:04;14.30;99.90
5940;DHT22;2995;-31.998;115.906;2022-09-03T12:36:40;14.30;99.90
5940;DHT22;2995;-31.998;115.906;2022-09-03T12:39:13;14.20;99.90
5940;DHT22;2995;-31.998;115.906;2022-09-03T12:41:55;14.20;99.90
5940;DHT22;2995;-31.998;115.906;2022-09-03T12:44:29;14.40;99.90
5940;DHT22;2995;-31.998;115.906;2022-09-03T12:47:09;14.40;99.90
5940;DHT22;2995;-31.998;115.906;2022-09-03T12:49:41;14.50;99.90
5940;DHT22;2995;-31.998;115.906;2022-09-03T12:52:18;14.30;99.90
5940;DHT22;2995;-31.998;115.906;2022-09-03T12:54:53;14.40;99.90
5940;DHT22;2995;-31.998;115.906;2022-09-03T12:57:28;14.30;99.90
5940;DHT22;2995;-31.998;115.906;2022-09-03T13:00:04;14.30;99.90
5940;DHT22;2995;-31.998;115.906;2022-09-03T13:02:39;14.20;99.90
5940;DHT22;2995;-31.998;115.906;2022-09-03T13:05:18;14.30;99.90
5940;DHT22;2995;-31.998;115.906;2022-09-03T13:07:54;14.40;99.90
5940;DHT22;2995;-31.998;115.906;2022-09-03T13:10:27;14.40;99.90
5940;DHT22;2995;-31.998;115.906;2022-09-03T13:13:00;14.40;99.90
5940;DHT22;2995;-31.998;115.906;2022-09-03T13:15:31;14.40;99.90
5940;DHT22;2995;-31.998;115.906;2022-09-03T13:18:20;14.40;99.90
5940;DHT22;2995;-31.998;115.906;2022-09-03T13:21:07;14.50;99.90
5940;DHT22;2995;-31.998;115.906;2022-09-03T13:23:56;14.50;99.90
5940;DHT22;2995;-31.998;115.906;2022-09-03T13:26:35;14.50;99.90
5940;DHT22;2995;-31.998;115.906;2022-09-03T13:29:33;14.50;99.90
5940;DHT22;2995;-31.998;115.906;2022-09-03T13:32:15;14.50;99.90
5940;DHT22;2995;-31.998;115.906;2022-09-03T13:34:55;14.50;99.90
5940;DHT22;2995;-31.998;115.906;2022-09-03T13:37:32;14.50;99.90
5940;DHT22;2995;-31.998;115.906;2022-09-03T13:40:14;14.40;99.90
5940;DHT22;2995;-31.998;115.906;2022-09-03T13:42:50;14.40;99.90
5940;DHT22;2995;-31.998;115.906;2022-09-03T13:45:30;14.40;99.90
5940;DHT22;2995;-31.998;115.906;2022-09-03T13:48:07;14.40;99.90
5940;DHT22;2995;-31.998;115.906;2022-09-03T13:51:02;14.40;99.90
5940;DHT22;2995;-31.998;115.906;2022-09-03T13:53:43;14.40;99.90
5940;DHT22;2995;-31.998;115.906;2022-09-03T13:56:24;14.40;99.90
5940;DHT22;2995;-31.998;115.906;2022-09-03T13:59:02;14.40;99.90
5940;DHT22;2995;-31.998;115.906;2022-09-03T14:02:19;14.40;99.90
5940;DHT22;2995;-31.998;115.906;2022-09-03T14:05:03;14.40;99.90
5940;DHT22;2995;-31.998;115.906;2022-09-03T14:07:56;14.40;99.90
5940;DHT22;2995;-31.998;115.906;2022-09-03T14:10:43;14.40;99.90
5940;DHT22;2995;-31.998;115.906;2022-09-03T14:13:26;14.40;99.90
5940;DHT22;2995;-31.998;115.906;2022-09-03T14:16:06;14.40;99.90
5940;DHT22;2995;-31.998;115.906;2022-09-03T14:18:43;14.30;99.90
5940;DHT22;2995;-31.998;115.906;2022-09-03T14:21:19;14.40;99.90
5940;DHT22;2995;-31.998;115.906;2022-09-03T14:23:59;14.30;99.90
5940;DHT22;2995;-31.998;115.906;2022-09-03T14:26:33;14.40;99.90
5940;DHT22;2995;-31.998;115.906;2022-09-03T14:29:14;14.30;99.90
5940;DHT22;2995;-31.998;115.906;2022-09-03T14:35:12;14.30;99.90
5940;DHT22;2995;-31.998;115.906;2022-09-03T14:40:43;14.40;99.90
5940;DHT22;2995;-31.998;115.906;2022-09-03T14:43:30;14.30;99.90
5940;DHT22;2995;-31.998;115.906;2022-09-03T14:46:17;14.30;99.90
5940;DHT22;2995;-31.998;115.906;2022-09-03T14:49:04;14.40;99.90
5940;DHT22;2995;-31.998;115.906;2022-09-03T14:51:55;14.40;99.90
5940;DHT22;2995;-31.998;115.906;2022-09-03T14:54:57;14.40;99.90
5940;DHT22;2995;-31.998;115.906;2022-09-03T15:00:33;14.20;99.90
5940;DHT22;2995;-31.998;115.906;2022-09-03T15:06:14;14.20;99.90
5940;DHT22;2995;-31.998;115.906;2022-09-03T15:11:54;14.20;99.90
5940;DHT22;2995;-31.998;115.906;2022-09-03T15:14:30;14.20;99.90
5940;DHT22;2995;-31.998;115.906;2022-09-03T15:17:25;14.30;99.90
5940;DHT22;2995;-31.998;115.906;2022-09-03T15:20:19;14.30;99.90
5940;DHT22;2995;-31.998;115.906;2022-09-03T15:23:08;14.30;99.90
5940;DHT22;2995;-31.998;115.906;2022-09-03T15:28:53;14.10;99.90
5940;DHT22;2995;-31.998;115.906;2022-09-03T15:31:31;14.10;99.90
5940;DHT22;2995;-31.998;115.906;2022-09-03T15:34:14;14.10;99.90
5940;DHT22;2995;-31.998;115.906;2022-09-03T15:36:52;14.20;99.90
5940;DHT22;2995;-31.998;115.906;2022-09-03T15:39:26;14.20;99.90
5940;DHT22;2995;-31.998;115.906;2022-09-03T15:42:00;14.10;99.90
5940;DHT22;2995;-31.998;115.906;2022-09-03T15:44:37;14.10;99.90
5940;DHT22;2995;-31.998;115.906;2022-09-03T15:47:27;14.10;99.90
5940;DHT22;2995;-31.998;115.906;2022-09-03T15:50:02;14.20;99.90
5940;DHT22;2995;-31.998;115.906;2022-09-03T15:52:48;14.10;99.90
5940;DHT22;2995;-31.998;115.906;2022-09-03T15:55:30;14.10;99.90
5940;DHT22;2995;-31.998;115.906;2022-09-03T15:58:08;14.10;99.90
5940;DHT22;2995;-31.998;115.906;2022-09-03T16:00:56;14.10;99.90
5940;DHT22;2995;-31.998;115.906;2022-09-03T16:03:36;14.00;99.90
5940;DHT22;2995;-31.998;115.906;2022-09-03T16:06:26;14.00;99.90
5940;DHT22;2995;-31.998;115.906;2022-09-03T16:09:15;14.00;99.90
5940;DHT22;2995;-31.998;115.906;2022-09-03T16:11:54;14.00;99.90
5940;DHT22;2995;-31.998;115.906;2022-09-03T16:14:29;14.00;99.90
5940;DHT22;2995;-31.998;115.906;2022-09-03T16:17:14;14.00;99.90
5940;DHT22;2995;-31.998;115.906;2022-09-03T16:19:54;13.90;99.90
5940;DHT22;2995;-31.998;115.906;2022-09-03T16:22:28;13.80;99.90
5940;DHT22;2995;-31.998;115.906;2022-09-03T16:25:06;13.80;99.90
5940;DHT22;2995;-31.998;115.906;2022-09-03T16:27:49;13.80;99.90
5940;DHT22;2995;-31.998;115.906;2022-09-03T16:30:28;13.80;99.90
5940;DHT22;2995;-31.998;115.906;2022-09-03T16:33:07;13.80;99.90
5940;DHT22;2995;-31.998;115.906;2022-09-03T16:35:47;13.90;99.90
5940;DHT22;2995;-31.998;115.906;2022-09-03T16:38:32;13.80;99.90
5940;DHT22;2995;-31.998;115.906;2022-09-03T16:41:16;13.80;99.90